createdAt,value
2018-06-29T00:01:09.368Z,17.50
2018-06-29T00:03:38.312Z,17.50
2018-06-29T00:06:07.893Z,17.40
2018-06-29T00:08:37.290Z,17.40
2018-06-29T00:11:06.384Z,17.40
2018-06-29T00:13:35.552Z,17.30
2018-06-29T00:16:04.706Z,17.30
2018-06-29T00:18:33.821Z,17.20
2018-06-29T00:21:02.899Z,17.20
2018-06-29T00:23:31.920Z,17.10
2018-06-29T00:26:01.033Z,17.10
2018-06-29T00:28:30.199Z,17.00
2018-06-29T00:30:59.592Z,17.00
2018-06-29T00:33:28.734Z,16.90
2018-06-29T00:35:57.968Z,16.90
2018-06-29T00:38:27.236Z,16.80
2018-06-29T00:40:56.377Z,16.80
2018-06-29T00:43:25.566Z,16.70
2018-06-29T00:45:54.741Z,16.70
2018-06-29T00:48:23.785Z,16.70
2018-06-29T00:50:52.872Z,16.60
2018-06-29T00:53:22.042Z,16.50
2018-06-29T00:55:51.281Z,16.50
2018-06-29T00:58:20.394Z,16.50
2018-06-29T01:00:49.699Z,16.40
2018-06-29T01:03:18.752Z,16.40
2018-06-29T01:05:47.774Z,16.30
2018-06-29T01:08:16.880Z,16.30
2018-06-29T01:10:45.889Z,16.20
2018-06-29T01:13:14.934Z,16.20
2018-06-29T01:15:43.969Z,16.20
2018-06-29T01:18:13.297Z,16.20
2018-06-29T01:20:42.502Z,16.10
2018-06-29T01:23:11.619Z,16.10
2018-06-29T01:25:40.721Z,16.10
2018-06-29T01:28:09.848Z,16.00
2018-06-29T01:30:39.055Z,16.00
2018-06-29T01:33:08.200Z,15.90
2018-06-29T01:38:06.186Z,15.90
2018-06-29T01:40:35.416Z,15.80
2018-06-29T01:43:04.550Z,15.80
2018-06-29T01:45:33.806Z,15.80
2018-06-29T01:48:02.978Z,15.80
2018-06-29T01:50:32.113Z,15.80
2018-06-29T01:53:01.433Z,15.70
2018-06-29T01:55:30.707Z,15.70
2018-06-29T01:57:59.775Z,15.60
2018-06-29T02:00:29.222Z,15.60
2018-06-29T02:02:58.252Z,15.60
2018-06-29T02:05:27.519Z,15.60
2018-06-29T02:07:56.718Z,15.50
2018-06-29T02:10:25.747Z,15.40
2018-06-29T02:12:54.811Z,15.40
2018-06-29T02:15:23.902Z,15.40
2018-06-29T02:17:52.986Z,15.40
2018-06-29T02:20:22.027Z,15.30
2018-06-29T02:22:51.074Z,15.30
2018-06-29T02:25:20.135Z,15.30
2018-06-29T02:27:49.206Z,15.30
2018-06-29T02:30:18.300Z,15.20
2018-06-29T02:32:47.390Z,15.20
2018-06-29T02:35:16.538Z,15.10
2018-06-29T02:37:45.751Z,15.10
2018-06-29T02:40:14.845Z,15.10
2018-06-29T02:42:44.486Z,15.00
2018-06-29T02:45:13.654Z,15.00
2018-06-29T02:47:42.898Z,15.00
2018-06-29T02:50:12.030Z,14.90
2018-06-29T02:52:41.221Z,14.90
2018-06-29T02:55:10.690Z,14.80
2018-06-29T02:57:39.817Z,14.70
2018-06-29T03:00:08.988Z,14.60
2018-06-29T03:02:38.084Z,14.60
2018-06-29T03:05:07.185Z,14.60
2018-06-29T03:07:36.251Z,14.50
2018-06-29T03:10:05.427Z,14.50
2018-06-29T03:12:34.524Z,14.50
2018-06-29T03:15:03.648Z,14.40
2018-06-29T03:17:32.762Z,14.40
2018-06-29T03:20:01.954Z,14.40
2018-06-29T03:22:30.957Z,14.40
2018-06-29T03:25:00.149Z,14.40
2018-06-29T03:27:29.188Z,14.30
2018-06-29T03:29:58.339Z,14.30
2018-06-29T03:32:27.404Z,14.30
2018-06-29T03:34:56.665Z,14.30
2018-06-29T03:37:25.749Z,14.30
2018-06-29T03:39:54.860Z,14.30
2018-06-29T03:42:23.914Z,14.30
2018-06-29T03:44:53.066Z,14.30
2018-06-29T03:47:22.219Z,14.30
2018-06-29T03:49:51.668Z,14.30
2018-06-29T03:52:20.766Z,14.30
2018-06-29T03:54:50.004Z,14.30
2018-06-29T03:57:19.473Z,14.20
2018-06-29T03:59:48.578Z,14.30
2018-06-29T04:02:17.655Z,14.30
2018-06-29T04:04:46.718Z,14.30
2018-06-29T04:07:15.958Z,14.30
2018-06-29T04:09:45.128Z,14.30
2018-06-29T04:12:14.196Z,14.30
2018-06-29T04:14:43.420Z,14.40
2018-06-29T04:17:12.499Z,14.40
2018-06-29T04:19:41.483Z,14.50
2018-06-29T04:22:10.589Z,14.50
2018-06-29T04:24:39.569Z,14.50
2018-06-29T04:27:08.493Z,14.50
2018-06-29T04:29:37.518Z,14.60
2018-06-29T04:32:06.607Z,14.60
2018-06-29T04:34:35.541Z,14.70
2018-06-29T04:37:04.546Z,14.70
2018-06-29T04:39:33.506Z,14.70
2018-06-29T04:42:02.915Z,14.80
2018-06-29T04:44:31.872Z,14.80
2018-06-29T04:47:00.925Z,14.90
2018-06-29T04:49:29.864Z,15.10
2018-06-29T04:51:58.925Z,15.60
2018-06-29T04:54:27.956Z,16.10
2018-06-29T04:56:56.944Z,16.80
2018-06-29T04:59:25.852Z,17.40
2018-06-29T05:01:54.808Z,17.90
2018-06-29T05:04:23.839Z,18.30
2018-06-29T05:09:21.457Z,19.00
2018-06-29T05:11:50.410Z,19.30
2018-06-29T05:14:19.428Z,19.40
2018-06-29T05:16:48.374Z,19.60
2018-06-29T05:19:17.455Z,19.70
2018-06-29T05:21:46.358Z,19.80
2018-06-29T05:24:15.533Z,20.00
2018-06-29T05:26:44.585Z,20.20
2018-06-29T05:29:13.661Z,20.30
2018-06-29T05:31:42.715Z,20.40
2018-06-29T05:34:11.638Z,20.50
2018-06-29T05:36:40.709Z,20.60
2018-06-29T05:41:39.409Z,20.90
2018-06-29T05:44:08.336Z,20.90
2018-06-29T05:46:37.541Z,21.10
2018-06-29T05:49:07.156Z,21.30
2018-06-29T05:51:36.350Z,21.40
2018-06-29T05:54:05.822Z,21.40
2018-06-29T05:56:34.757Z,21.50
2018-06-29T05:59:03.827Z,21.70
2018-06-29T06:01:32.767Z,21.80
2018-06-29T06:04:01.735Z,22.00
2018-06-29T06:06:30.662Z,22.10
2018-06-29T06:09:00.789Z,22.10
2018-06-29T06:11:29.741Z,22.20
2018-06-29T06:13:58.704Z,22.40
2018-06-29T06:16:27.625Z,22.60
2018-06-29T06:20:03.217Z,22.80
2018-06-29T06:22:32.335Z,23.00
2018-06-29T06:25:01.285Z,23.30
2018-06-29T06:27:30.301Z,23.50
2018-06-29T06:30:00.146Z,23.80
2018-06-29T06:32:29.215Z,23.90
2018-06-29T06:34:58.324Z,23.90
2018-06-29T06:37:27.299Z,23.90
2018-06-29T06:39:56.274Z,24.10
2018-06-29T06:42:25.209Z,24.30
2018-06-29T06:44:54.192Z,24.50
2018-06-29T06:47:23.368Z,24.70
2018-06-29T06:49:52.292Z,24.80
2018-06-29T06:52:21.257Z,25.10
2018-06-29T06:54:50.265Z,25.10
2018-06-29T06:57:19.234Z,25.10
2018-06-29T06:59:48.175Z,25.20
2018-06-29T07:02:17.106Z,25.40
2018-06-29T07:04:46.070Z,25.70
2018-06-29T07:07:15.002Z,26.00
2018-06-29T07:09:43.949Z,25.90
2018-06-29T07:12:12.889Z,26.20
2018-06-29T07:14:41.819Z,26.20
2018-06-29T07:17:10.772Z,26.40
2018-06-29T07:19:39.702Z,26.60
2018-06-29T07:22:08.642Z,26.80
2018-06-29T07:24:37.580Z,26.90
2018-06-29T07:27:06.515Z,26.80
2018-06-29T07:29:35.460Z,26.90
2018-06-29T07:32:04.382Z,27.10
2018-06-29T07:34:33.362Z,27.20
2018-06-29T07:37:02.305Z,27.30
2018-06-29T07:39:31.225Z,27.70
2018-06-29T07:42:00.264Z,27.70
2018-06-29T07:44:29.234Z,27.90
2018-06-29T07:46:58.291Z,28.30
2018-06-29T07:49:27.319Z,28.10
2018-06-29T07:54:24.893Z,28.30
2018-06-29T07:59:22.369Z,28.50
2018-06-29T08:01:51.372Z,28.90
2018-06-29T08:04:20.282Z,29.10
2018-06-29T08:06:49.218Z,29.10
2018-06-29T08:11:46.846Z,29.00
2018-06-29T08:16:44.356Z,29.40
2018-06-29T08:19:13.339Z,29.40
2018-06-29T08:21:42.289Z,29.60
2018-06-29T08:24:11.282Z,29.80
2018-06-29T08:26:40.216Z,30.00
2018-06-29T08:29:09.197Z,30.10
2018-06-29T08:31:38.109Z,30.20
2018-06-29T08:34:07.041Z,30.30
2018-06-29T08:36:35.972Z,30.30
2018-06-29T08:39:07.706Z,30.30
2018-06-29T08:41:36.658Z,30.50
2018-06-29T08:44:05.815Z,30.40
2018-06-29T08:46:34.666Z,30.30
2018-06-29T08:49:03.590Z,29.90
2018-06-29T08:51:32.539Z,29.70
2018-06-29T08:54:01.609Z,29.60
2018-06-29T08:56:30.525Z,29.40
2018-06-29T08:58:59.454Z,29.30
2018-06-29T09:03:57.072Z,29.90
2018-06-29T09:06:25.985Z,30.10
2018-06-29T09:08:54.956Z,30.20
2018-06-29T09:11:23.882Z,30.60
2018-06-29T09:13:53.107Z,31.00
2018-06-29T09:16:22.015Z,31.20
2018-06-29T09:18:51.021Z,31.40
2018-06-29T09:21:20.009Z,31.50
2018-06-29T09:23:48.939Z,31.40
2018-06-29T09:26:17.880Z,31.40
2018-06-29T09:28:46.837Z,31.60
2018-06-29T09:31:15.779Z,31.60
2018-06-29T09:33:45.251Z,31.70
2018-06-29T09:36:14.226Z,31.60
2018-06-29T09:38:43.176Z,31.20
2018-06-29T09:41:12.158Z,31.10
2018-06-29T09:43:41.211Z,31.10
2018-06-29T09:46:11.051Z,30.90
2018-06-29T09:48:40.041Z,31.10
2018-06-29T09:51:08.953Z,31.30
2018-06-29T09:53:38.400Z,31.30
2018-06-29T09:56:07.387Z,31.30
2018-06-29T09:58:36.335Z,30.70
2018-06-29T10:01:05.304Z,30.20
2018-06-29T10:03:34.284Z,30.00
2018-06-29T10:06:03.197Z,30.30
2018-06-29T10:08:32.185Z,30.60
2018-06-29T10:11:01.090Z,31.00
2018-06-29T10:13:30.054Z,31.10
2018-06-29T10:15:58.974Z,31.50
2018-06-29T10:18:28.132Z,31.40
2018-06-29T10:20:57.201Z,31.00
2018-06-29T10:23:26.134Z,31.30
2018-06-29T10:25:55.081Z,31.60
2018-06-29T10:28:24.002Z,31.80
2018-06-29T10:30:53.050Z,31.90
2018-06-29T10:33:21.976Z,32.10
2018-06-29T10:35:50.957Z,32.10
2018-06-29T10:38:19.893Z,32.20
2018-06-29T10:40:48.944Z,32.40
2018-06-29T10:43:17.958Z,32.30
2018-06-29T10:45:47.206Z,32.50
2018-06-29T10:48:16.121Z,32.70
2018-06-29T10:50:45.078Z,32.70
2018-06-29T10:53:14.006Z,33.00
2018-06-29T10:55:42.927Z,33.00
2018-06-29T10:58:11.879Z,33.00
2018-06-29T11:00:40.829Z,33.10
2018-06-29T11:03:09.762Z,33.10
2018-06-29T11:05:38.757Z,33.10
2018-06-29T11:08:07.707Z,32.70
2018-06-29T11:10:36.669Z,32.70
2018-06-29T11:13:05.639Z,32.70
2018-06-29T11:15:34.832Z,32.60
2018-06-29T11:18:03.804Z,32.60
2018-06-29T11:20:32.832Z,32.70
2018-06-29T11:23:01.773Z,33.00
2018-06-29T11:25:30.758Z,33.10
2018-06-29T11:27:59.766Z,32.80
2018-06-29T11:30:28.717Z,32.70
2018-06-29T11:32:57.655Z,32.60
2018-06-29T11:35:26.577Z,32.90
2018-06-29T11:37:55.539Z,33.10
2018-06-29T11:42:53.073Z,33.50
2018-06-29T11:45:22.061Z,33.70
2018-06-29T11:47:51.002Z,33.50
2018-06-29T11:50:19.963Z,33.70
2018-06-29T11:52:48.930Z,33.50
2018-06-29T11:55:17.906Z,33.20
2018-06-29T11:57:47.362Z,33.20
2018-06-29T12:00:16.407Z,33.40
2018-06-29T12:02:45.351Z,33.60
2018-06-29T12:05:14.349Z,33.70
2018-06-29T12:07:43.305Z,33.70
2018-06-29T12:10:12.257Z,33.60
2018-06-29T12:12:41.406Z,33.60
2018-06-29T12:15:10.346Z,33.50
2018-06-29T12:17:39.277Z,33.50
2018-06-29T12:20:08.258Z,33.70
2018-06-29T12:22:37.281Z,33.60
2018-06-29T12:27:34.836Z,33.70
2018-06-29T12:30:04.465Z,33.90
2018-06-29T12:32:33.473Z,33.90
2018-06-29T12:35:02.497Z,33.80
2018-06-29T12:37:31.720Z,33.80
2018-06-29T12:40:00.796Z,33.80
2018-06-29T12:42:29.890Z,34.10
2018-06-29T12:44:58.883Z,34.00
2018-06-29T12:47:27.905Z,33.80
2018-06-29T12:49:56.953Z,33.70
2018-06-29T12:52:25.862Z,33.30
2018-06-29T12:54:54.805Z,33.40
2018-06-29T12:57:23.828Z,33.40
2018-06-29T12:59:52.798Z,33.80
2018-06-29T13:02:21.674Z,33.90
2018-06-29T13:04:50.686Z,34.00
2018-06-29T13:07:20.415Z,34.10
2018-06-29T13:09:49.429Z,33.30
2018-06-29T13:12:18.395Z,33.40
2018-06-29T13:14:47.387Z,33.40
2018-06-29T13:17:17.693Z,33.20
2018-06-29T13:19:46.686Z,32.90
2018-06-29T13:22:15.664Z,33.00
2018-06-29T13:24:44.691Z,33.10
2018-06-29T13:27:13.772Z,33.30
2018-06-29T13:29:42.748Z,33.50
2018-06-29T13:32:11.740Z,33.60
2018-06-29T13:34:40.743Z,33.50
2018-06-29T13:37:09.721Z,33.50
2018-06-29T13:39:38.753Z,33.70
2018-06-29T13:42:08.238Z,33.80
2018-06-29T13:44:37.197Z,33.80
2018-06-29T13:47:06.136Z,33.90
2018-06-29T13:49:35.051Z,34.00
2018-06-29T13:52:03.990Z,34.00
2018-06-29T13:54:32.932Z,34.00
2018-06-29T13:57:01.870Z,34.00
2018-06-29T13:59:30.863Z,33.90
2018-06-29T14:01:59.861Z,33.90
2018-06-29T14:04:28.869Z,33.60
2018-06-29T14:09:26.513Z,33.60
2018-06-29T14:11:55.529Z,33.50
2018-06-29T14:14:24.603Z,33.50
2018-06-29T14:16:53.546Z,33.70
2018-06-29T14:19:22.486Z,33.70
2018-06-29T14:21:51.422Z,33.70
2018-06-29T14:24:20.330Z,33.70
2018-06-29T14:26:49.318Z,33.60
2018-06-29T14:29:18.486Z,33.40
2018-06-29T14:31:47.812Z,33.50
2018-06-29T14:34:16.761Z,33.60
2018-06-29T14:36:45.854Z,33.70
2018-06-29T14:39:14.857Z,33.60
2018-06-29T14:41:44.318Z,33.50
2018-06-29T14:44:13.286Z,33.50
2018-06-29T14:46:42.522Z,33.60
2018-06-29T14:49:11.486Z,33.70
2018-06-29T14:51:40.566Z,33.70
2018-06-29T14:54:10.272Z,33.60
2018-06-29T14:56:39.568Z,33.60
2018-06-29T14:59:08.594Z,33.40
2018-06-29T15:01:37.526Z,33.10
2018-06-29T15:04:06.454Z,32.90
2018-06-29T15:06:35.475Z,32.80
2018-06-29T15:09:07.371Z,32.50
2018-06-29T15:11:36.496Z,32.50
2018-06-29T15:14:05.630Z,32.60
2018-06-29T15:19:03.586Z,32.90
2018-06-29T15:21:32.612Z,32.60
2018-06-29T15:24:02.698Z,32.40
2018-06-29T15:26:32.003Z,32.60
2018-06-29T15:29:01.100Z,32.70
2018-06-29T15:31:30.249Z,32.70
2018-06-29T15:33:59.233Z,32.80
2018-06-29T15:36:28.259Z,32.90
2018-06-29T15:38:57.247Z,33.10
2018-06-29T15:41:26.263Z,32.90
2018-06-29T15:43:55.180Z,32.50
2018-06-29T15:46:24.126Z,32.00
2018-06-29T15:48:53.038Z,32.10
2018-06-29T15:51:22.328Z,31.90
2018-06-29T15:53:51.327Z,31.40
2018-06-29T15:56:20.253Z,31.50
2018-06-29T15:58:49.333Z,31.60
2018-06-29T16:01:18.335Z,31.80
2018-06-29T16:03:47.423Z,31.90
2018-06-29T16:08:44.983Z,31.90
2018-06-29T16:11:14.282Z,31.70
2018-06-29T16:13:44.532Z,31.40
2018-06-29T16:16:13.547Z,31.10
2018-06-29T16:18:42.621Z,31.00
2018-06-29T16:21:11.917Z,31.00
2018-06-29T16:23:40.900Z,31.00
2018-06-29T16:26:09.905Z,31.00
2018-06-29T16:28:39.013Z,30.90
2018-06-29T16:31:08.022Z,30.80
2018-06-29T16:33:36.942Z,30.80
2018-06-29T16:36:05.927Z,30.80
2018-06-29T16:41:03.954Z,30.80
2018-06-29T16:43:32.913Z,30.90
2018-06-29T16:46:02.118Z,31.00
2018-06-29T16:48:31.071Z,30.90
2018-06-29T16:51:00.378Z,30.80
2018-06-29T16:53:29.379Z,30.80
2018-06-29T16:55:58.505Z,30.70
2018-06-29T16:58:27.486Z,30.50
2018-06-29T17:00:56.406Z,30.60
2018-06-29T17:03:25.374Z,30.50
2018-06-29T17:05:54.299Z,30.50
2018-06-29T17:08:23.546Z,30.50
2018-06-29T17:13:21.367Z,30.20
2018-06-29T17:15:50.302Z,30.30
2018-06-29T17:18:19.387Z,30.30
2018-06-29T17:20:48.490Z,30.30
2018-06-29T17:25:46.125Z,30.20
2018-06-29T17:28:15.110Z,30.10
2018-06-29T17:30:44.071Z,30.10
2018-06-29T17:33:13.138Z,29.90
2018-06-29T17:35:42.247Z,29.80
2018-06-29T17:40:40.214Z,29.70
2018-06-29T17:43:09.545Z,29.80
2018-06-29T17:45:38.653Z,29.60
2018-06-29T17:48:07.598Z,29.60
2018-06-29T17:53:05.401Z,29.40
2018-06-29T17:55:34.324Z,29.40
2018-06-29T17:58:03.265Z,29.30
2018-06-29T18:00:32.564Z,29.20
2018-06-29T18:03:01.671Z,29.00
2018-06-29T18:05:30.565Z,29.00
2018-06-29T18:12:56.985Z,28.90
2018-06-29T18:15:25.889Z,28.70
2018-06-29T18:17:54.961Z,28.70
2018-06-29T18:20:23.997Z,28.70
2018-06-29T18:22:53.088Z,28.60
2018-06-29T18:25:21.990Z,28.50
2018-06-29T18:27:51.094Z,28.50
2018-06-29T18:30:20.167Z,28.40
2018-06-29T18:32:49.179Z,28.50
2018-06-29T18:35:18.130Z,28.40
2018-06-29T18:37:47.089Z,28.40
2018-06-29T18:40:16.423Z,28.40
2018-06-29T18:42:45.589Z,28.20
2018-06-29T18:45:14.555Z,28.20
2018-06-29T18:47:43.678Z,28.10
2018-06-29T18:50:12.688Z,27.80
2018-06-29T18:52:41.744Z,27.50
2018-06-29T18:55:10.797Z,27.30
2018-06-29T18:57:39.930Z,27.20
2018-06-29T19:00:08.848Z,27.10
2018-06-29T19:02:37.818Z,26.80
2018-06-29T19:05:06.963Z,26.50
2018-06-29T19:07:35.934Z,26.30
2018-06-29T19:10:04.973Z,26.10
2018-06-29T19:12:34.010Z,26.00
2018-06-29T19:15:02.942Z,25.90
2018-06-29T19:17:32.464Z,25.80
2018-06-29T19:20:01.489Z,25.80
2018-06-29T19:22:30.386Z,25.70
2018-06-29T19:24:59.819Z,25.60
2018-06-29T19:27:28.893Z,25.40
2018-06-29T19:29:57.873Z,25.40
2018-06-29T19:32:26.991Z,25.20
2018-06-29T19:34:56.097Z,25.10
2018-06-29T19:37:25.361Z,24.90
2018-06-29T19:39:55.005Z,24.80
2018-06-29T19:42:24.134Z,24.70
2018-06-29T19:44:53.392Z,24.60
2018-06-29T19:47:22.449Z,24.50
2018-06-29T19:49:51.859Z,24.40
2018-06-29T19:52:20.954Z,24.30
2018-06-29T19:54:50.233Z,24.20
2018-06-29T19:57:19.258Z,24.10
2018-06-29T19:59:48.274Z,24.00
2018-06-29T20:02:17.992Z,23.90
2018-06-29T20:04:47.382Z,23.80
2018-06-29T20:07:16.569Z,23.60
2018-06-29T20:09:45.875Z,23.50
2018-06-29T20:12:14.973Z,23.40
2018-06-29T20:14:44.013Z,23.40
2018-06-29T20:17:12.934Z,23.30
2018-06-29T20:22:10.614Z,23.10
2018-06-29T20:24:39.865Z,23.00
2018-06-29T20:27:08.822Z,22.90
2018-06-29T20:29:37.766Z,22.80
2018-06-29T20:32:06.711Z,22.70
2018-06-29T20:34:35.665Z,22.60
2018-06-29T20:37:04.639Z,22.50
2018-06-29T20:39:33.589Z,22.40
2018-06-29T20:42:02.536Z,22.20
2018-06-29T20:44:31.559Z,22.10
2018-06-29T20:47:00.569Z,22.00
2018-06-29T20:49:29.596Z,21.90
2018-06-29T20:51:58.546Z,21.90
2018-06-29T20:54:27.578Z,21.80
2018-06-29T20:56:56.511Z,21.70
2018-06-29T20:59:25.796Z,21.60
2018-06-29T21:01:54.959Z,21.60
2018-06-29T21:04:23.960Z,21.50
2018-06-29T21:06:52.914Z,21.40
2018-06-29T21:09:21.944Z,21.30
2018-06-29T21:11:51.947Z,21.20
2018-06-29T21:14:20.880Z,21.20
2018-06-29T21:16:50.241Z,21.10
2018-06-29T21:19:19.186Z,21.00
2018-06-29T21:21:48.548Z,20.90
2018-06-29T21:24:17.596Z,20.80
2018-06-29T21:26:46.608Z,20.70
2018-06-29T21:29:16.210Z,20.60
2018-06-29T21:31:45.204Z,20.50
2018-06-29T21:34:14.164Z,20.40
2018-06-29T21:36:43.117Z,20.30
2018-06-29T21:41:41.066Z,20.10
2018-06-29T21:44:10.109Z,20.00
2018-06-29T21:46:39.506Z,20.00
2018-06-29T21:49:08.529Z,19.90
2018-06-29T21:51:37.462Z,19.90
2018-06-29T21:54:06.430Z,19.80
2018-06-29T21:56:35.407Z,19.80
2018-06-29T21:59:04.417Z,19.70
2018-06-29T22:01:33.366Z,19.60
2018-06-29T22:04:02.322Z,19.50
2018-06-29T22:06:31.349Z,19.40
2018-06-29T22:09:00.322Z,19.30
2018-06-29T22:11:29.271Z,19.30
2018-06-29T22:13:58.386Z,19.20
2018-06-29T22:16:27.570Z,19.10
2018-06-29T22:18:56.521Z,19.10
2018-06-29T22:21:25.489Z,19.00
2018-06-29T22:23:54.509Z,19.00
2018-06-29T22:26:23.649Z,18.90
2018-06-29T22:28:52.622Z,18.90
2018-06-29T22:31:21.605Z,18.80
2018-06-29T22:33:51.038Z,18.70
2018-06-29T22:36:20.021Z,18.70
2018-06-29T22:38:49.141Z,18.60
2018-06-29T22:41:18.093Z,18.50
2018-06-29T22:43:48.115Z,18.50
2018-06-29T22:46:17.063Z,18.30
2018-06-29T22:48:46.101Z,18.30
2018-06-29T22:51:15.045Z,18.20
2018-06-29T22:53:44.423Z,18.10
2018-06-29T22:56:13.351Z,18.10
2018-06-29T22:58:42.295Z,18.00
2018-06-29T23:01:11.292Z,18.00
2018-06-29T23:03:45.584Z,17.90
2018-06-29T23:06:15.016Z,17.80
2018-06-29T23:08:44.026Z,17.80
2018-06-29T23:11:13.082Z,17.80
2018-06-29T23:16:10.656Z,17.60
2018-06-29T23:21:08.241Z,17.50
2018-06-29T23:23:37.205Z,17.50
2018-06-29T23:26:06.152Z,17.40
2018-06-29T23:28:35.092Z,17.40
2018-06-29T23:31:03.994Z,17.40
2018-06-29T23:33:32.953Z,17.40
2018-06-29T23:36:01.925Z,17.30
2018-06-29T23:38:31.109Z,17.30
2018-06-29T23:41:00.236Z,17.20
2018-06-29T23:43:29.246Z,17.20
2018-06-29T23:48:26.810Z,17.10
2018-06-29T23:50:55.806Z,17.00
2018-06-29T23:53:24.815Z,17.00
2018-06-29T23:55:53.766Z,17.00
2018-06-29T23:58:22.790Z,16.90
